createdAt,value
2023-04-07T00:00:44.474Z,0.00
2023-04-07T00:01:44.705Z,0.00
2023-04-07T00:02:45.020Z,0.00
2023-04-07T00:03:45.109Z,0.00
2023-04-07T00:04:45.182Z,0.00
2023-04-07T00:05:45.294Z,0.00
2023-04-07T00:06:45.503Z,0.00
2023-04-07T00:07:55.819Z,0.00
2023-04-07T00:08:46.832Z,0.00
2023-04-07T00:09:45.992Z,0.00
2023-04-07T00:10:46.193Z,0.00
2023-04-07T00:11:46.349Z,0.00
2023-04-07T00:12:46.546Z,0.00
2023-04-07T00:13:46.729Z,0.00
2023-04-07T00:14:46.891Z,0.00
2023-04-07T00:15:47.102Z,0.00
2023-04-07T00:16:47.223Z,0.00
2023-04-07T00:17:47.452Z,0.00
2023-04-07T00:18:47.598Z,0.00
2023-04-07T00:19:47.812Z,0.00
2023-04-07T00:20:47.925Z,0.00
2023-04-07T00:21:48.078Z,0.00
2023-04-07T00:22:48.352Z,0.00
2023-04-07T00:23:48.448Z,0.00
2023-04-07T00:24:48.640Z,0.00
2023-04-07T00:25:48.764Z,0.00
2023-04-07T00:26:48.983Z,0.00
2023-04-07T00:27:49.180Z,0.00
2023-04-07T00:28:49.320Z,0.00
2023-04-07T00:29:49.479Z,0.00
2023-04-07T00:30:49.739Z,0.00
2023-04-07T00:31:49.826Z,0.00
2023-04-07T00:32:50.068Z,0.00
2023-04-07T00:33:50.270Z,0.00
2023-04-07T00:34:50.381Z,0.00
2023-04-07T00:35:50.552Z,0.00
2023-04-07T00:36:50.709Z,0.00
2023-04-07T00:37:50.878Z,0.00
2023-04-07T00:38:51.052Z,0.00
2023-04-07T00:39:51.202Z,0.00
2023-04-07T00:40:51.535Z,0.00
2023-04-07T00:41:51.577Z,0.00
2023-04-07T00:42:51.733Z,0.00
2023-04-07T00:43:52.352Z,0.00
2023-04-07T00:44:52.067Z,0.00
2023-04-07T00:45:52.231Z,0.00
2023-04-07T00:46:52.441Z,0.00
2023-04-07T00:47:52.605Z,0.00
2023-04-07T00:48:52.832Z,0.00
2023-04-07T00:49:52.889Z,0.00
2023-04-07T00:50:53.083Z,0.00
2023-04-07T00:51:53.277Z,0.00
2023-04-07T00:52:53.402Z,0.00
2023-04-07T00:53:53.891Z,0.00
2023-04-07T00:54:53.733Z,0.00
2023-04-07T00:55:53.887Z,0.00
2023-04-07T00:56:54.091Z,0.00
2023-04-07T00:57:54.259Z,0.00
2023-04-07T00:58:54.458Z,0.00
2023-04-07T00:59:54.607Z,0.00
2023-04-07T01:00:54.781Z,0.00
2023-04-07T01:01:55.005Z,0.00
2023-04-07T01:02:55.289Z,0.00
2023-04-07T01:03:55.700Z,0.00
2023-04-07T01:04:55.565Z,0.00
2023-04-07T01:05:55.671Z,0.00
2023-04-07T01:06:55.802Z,0.00
2023-04-07T01:07:55.987Z,0.00
2023-04-07T01:08:56.152Z,0.00
2023-04-07T01:09:56.309Z,0.00
2023-04-07T01:10:56.501Z,0.00
2023-04-07T01:11:56.689Z,0.00
2023-04-07T01:12:56.873Z,0.00
2023-04-07T01:13:57.245Z,0.00
2023-04-07T01:14:57.208Z,0.00
2023-04-07T01:15:57.547Z,0.00
2023-04-07T01:16:57.621Z,0.00
2023-04-07T01:17:57.755Z,0.00
2023-04-07T01:18:57.906Z,0.00
2023-04-07T01:19:58.137Z,0.00
2023-04-07T01:20:58.242Z,0.00
2023-04-07T01:21:58.440Z,0.00
2023-04-07T01:22:58.627Z,0.00
2023-04-07T01:23:58.771Z,0.00
2023-04-07T01:24:58.987Z,0.00
2023-04-07T01:25:59.152Z,0.00
2023-04-07T01:26:59.318Z,0.00
2023-04-07T01:27:59.549Z,0.00
2023-04-07T01:28:59.663Z,0.00
2023-04-07T01:29:59.838Z,0.00
2023-04-07T01:30:59.999Z,0.00
2023-04-07T01:32:00.200Z,0.00
2023-04-07T01:33:00.423Z,0.00
2023-04-07T01:34:00.530Z,0.00
2023-04-07T01:35:00.678Z,0.00
2023-04-07T01:36:00.870Z,0.00
2023-04-07T01:37:01.034Z,0.00
2023-04-07T01:38:01.222Z,0.00
2023-04-07T01:39:01.374Z,0.00
2023-04-07T01:40:01.558Z,0.00
2023-04-07T01:41:01.708Z,0.00
2023-04-07T01:42:01.861Z,0.00
2023-04-07T01:43:02.053Z,0.00
2023-04-07T01:44:02.214Z,0.00
2023-04-07T01:45:02.369Z,0.00
2023-04-07T01:46:02.587Z,0.00
2023-04-07T01:47:02.792Z,0.00
2023-04-07T01:48:02.928Z,0.00
2023-04-07T01:49:03.063Z,0.00
2023-04-07T01:50:03.251Z,0.00
2023-04-07T01:51:03.412Z,0.00
2023-04-07T01:52:03.573Z,0.00
2023-04-07T01:53:03.766Z,0.00
2023-04-07T01:54:03.926Z,0.00
2023-04-07T01:55:04.098Z,0.00
2023-04-07T01:56:04.254Z,0.00
2023-04-07T01:57:04.419Z,0.00
2023-04-07T01:58:04.627Z,0.00
2023-04-07T01:59:04.788Z,0.00
2023-04-07T02:00:04.986Z,0.00
2023-04-07T02:01:05.201Z,0.00
2023-04-07T02:02:05.364Z,0.00
2023-04-07T02:03:05.637Z,0.00
2023-04-07T02:04:05.660Z,0.00
2023-04-07T02:05:05.806Z,0.00
2023-04-07T02:06:06.008Z,0.00
2023-04-07T02:07:06.176Z,0.00
2023-04-07T02:08:06.371Z,0.00
2023-04-07T02:09:06.529Z,0.00
2023-04-07T02:10:06.723Z,0.00
2023-04-07T02:11:06.868Z,0.00
2023-04-07T02:12:07.070Z,0.00
2023-04-07T02:13:07.242Z,0.00
2023-04-07T02:14:07.404Z,0.00
2023-04-07T02:15:07.572Z,0.00
2023-04-07T02:16:07.833Z,0.00
2023-04-07T02:17:07.927Z,0.00
2023-04-07T02:18:08.185Z,0.00
2023-04-07T02:19:08.295Z,0.00
2023-04-07T02:20:08.439Z,0.00
2023-04-07T02:21:08.608Z,0.00
2023-04-07T02:22:08.795Z,0.00
2023-04-07T02:23:08.944Z,0.00
2023-04-07T02:24:09.104Z,0.00
2023-04-07T02:25:09.316Z,0.00
2023-04-07T02:26:09.444Z,0.00
2023-04-07T02:27:09.593Z,0.00
2023-04-07T02:28:09.796Z,0.00
2023-04-07T02:29:09.904Z,0.00
2023-04-07T02:30:10.100Z,0.00
2023-04-07T02:31:10.271Z,0.00
2023-04-07T02:32:10.501Z,0.00
2023-04-07T02:33:10.633Z,0.00
2023-04-07T02:34:10.796Z,0.00
2023-04-07T02:35:10.951Z,0.00
2023-04-07T02:36:11.145Z,0.00
2023-04-07T02:37:11.444Z,0.00
2023-04-07T02:38:12.091Z,0.00
2023-04-07T02:39:11.660Z,0.00
2023-04-07T02:40:11.809Z,0.00
2023-04-07T02:41:11.984Z,0.00
2023-04-07T02:42:12.162Z,0.00
2023-04-07T02:43:12.312Z,0.00
2023-04-07T02:44:12.471Z,0.00
2023-04-07T02:45:12.646Z,0.00
2023-04-07T02:46:15.336Z,0.00
2023-04-07T02:47:12.982Z,0.00
2023-04-07T02:48:13.211Z,0.00
2023-04-07T02:49:13.358Z,0.00
2023-04-07T02:50:13.597Z,0.00
2023-04-07T02:51:13.706Z,0.00
2023-04-07T02:52:13.860Z,0.00
2023-04-07T02:53:14.029Z,0.00
2023-04-07T02:54:14.195Z,0.00
2023-04-07T02:55:14.392Z,0.00
2023-04-07T02:56:14.562Z,0.00
2023-04-07T02:57:14.729Z,0.00
2023-04-07T02:58:14.951Z,0.00
2023-04-07T02:59:15.073Z,0.00
2023-04-07T03:00:15.245Z,0.00
2023-04-07T03:01:15.480Z,0.00
2023-04-07T03:02:15.672Z,0.00
2023-04-07T03:03:16.033Z,0.00
2023-04-07T03:04:16.111Z,0.00
2023-04-07T03:05:16.114Z,0.00
2023-04-07T03:06:16.272Z,0.00
2023-04-07T03:07:16.427Z,0.00
2023-04-07T03:08:16.625Z,0.00
2023-04-07T03:09:16.854Z,0.00
2023-04-07T03:10:16.945Z,0.00
2023-04-07T03:11:17.123Z,0.00
2023-04-07T03:12:17.309Z,0.00
2023-04-07T03:13:17.458Z,0.00
2023-04-07T03:14:17.637Z,0.00
2023-04-07T03:15:18.894Z,0.00
2023-04-07T03:16:17.996Z,0.00
2023-04-07T03:17:18.128Z,0.00
2023-04-07T03:18:18.343Z,0.00
2023-04-07T03:19:18.508Z,0.00
2023-04-07T03:20:18.693Z,0.00
2023-04-07T03:21:18.841Z,0.00
2023-04-07T03:22:19.012Z,0.00
2023-04-07T03:23:19.175Z,0.00
2023-04-07T03:24:19.347Z,0.00
2023-04-07T03:25:19.529Z,0.00
2023-04-07T03:26:19.698Z,0.00
2023-04-07T03:27:19.866Z,0.00
2023-04-07T03:28:20.041Z,0.00
2023-04-07T03:29:20.215Z,0.00
2023-04-07T03:30:20.504Z,0.00
2023-04-07T03:31:20.605Z,0.00
2023-04-07T03:32:20.731Z,0.00
2023-04-07T03:33:20.928Z,0.00
2023-04-07T03:34:21.091Z,0.00
2023-04-07T03:35:21.243Z,0.00
2023-04-07T03:36:21.470Z,0.00
2023-04-07T03:37:21.620Z,0.00
2023-04-07T03:38:21.847Z,0.00
2023-04-07T03:39:22.001Z,0.00
2023-04-07T03:40:22.188Z,0.00
2023-04-07T03:41:22.353Z,0.00
2023-04-07T03:42:22.533Z,0.00
2023-04-07T03:43:22.704Z,0.00
2023-04-07T03:44:22.901Z,0.00
2023-04-07T03:45:23.024Z,0.00
2023-04-07T03:46:23.212Z,0.00
2023-04-07T03:47:23.354Z,0.00
2023-04-07T03:48:23.566Z,0.00
2023-04-07T03:49:23.723Z,0.00
2023-04-07T03:50:23.892Z,0.00
2023-04-07T03:51:24.039Z,0.00
2023-04-07T03:52:24.233Z,0.00
2023-04-07T03:53:24.399Z,0.00
2023-04-07T03:54:24.575Z,0.00
2023-04-07T03:55:24.739Z,0.00
2023-04-07T03:56:25.411Z,0.00
2023-04-07T03:57:25.103Z,0.00
2023-04-07T03:58:25.303Z,0.00
2023-04-07T03:59:25.430Z,0.00
2023-04-07T04:00:25.604Z,0.00
2023-04-07T04:01:25.775Z,4.00
2023-04-07T04:02:26.009Z,4.00
2023-04-07T04:03:26.168Z,4.00
2023-04-07T04:04:26.285Z,4.00
2023-04-07T04:05:26.436Z,4.00
2023-04-07T04:06:26.626Z,8.00
2023-04-07T04:07:26.776Z,8.00
2023-04-07T04:08:26.936Z,4.00
2023-04-07T04:09:27.129Z,12.00
2023-04-07T04:10:27.326Z,12.00
2023-04-07T04:11:27.460Z,16.00
2023-04-07T04:12:27.658Z,12.00
2023-04-07T04:13:27.832Z,16.00
2023-04-07T04:14:28.011Z,20.00
2023-04-07T04:15:28.182Z,24.00
2023-04-07T04:16:28.561Z,28.00
2023-04-07T04:17:28.620Z,32.00
2023-04-07T04:18:28.766Z,36.00
2023-04-07T04:19:28.884Z,44.00
2023-04-07T04:20:29.070Z,44.00
2023-04-07T04:21:29.257Z,52.00
2023-04-07T04:22:29.458Z,56.00
2023-04-07T04:23:29.585Z,64.00
2023-04-07T04:24:29.767Z,76.00
2023-04-07T04:25:29.961Z,84.00
2023-04-07T04:26:30.139Z,92.00
2023-04-07T04:27:30.319Z,100.00
2023-04-07T04:28:30.456Z,116.00
2023-04-07T04:29:32.373Z,128.00
2023-04-07T04:30:30.800Z,140.00
2023-04-07T04:31:31.071Z,152.00
2023-04-07T04:32:31.258Z,164.00
2023-04-07T04:33:31.375Z,184.00
2023-04-07T04:34:31.529Z,200.00
2023-04-07T04:35:31.694Z,216.00
2023-04-07T04:36:31.912Z,232.00
2023-04-07T04:37:32.064Z,256.00
2023-04-07T04:38:32.214Z,280.00
2023-04-07T04:39:32.405Z,300.00
2023-04-07T04:40:32.584Z,328.00
2023-04-07T04:41:32.753Z,356.00
2023-04-07T04:42:32.938Z,384.00
2023-04-07T04:43:33.117Z,416.00
2023-04-07T04:44:33.283Z,452.00
2023-04-07T04:45:33.452Z,492.00
2023-04-07T04:46:33.678Z,532.00
2023-04-07T04:47:33.870Z,576.00
2023-04-07T04:48:34.000Z,620.00
2023-04-07T04:49:34.191Z,672.00
2023-04-07T04:50:34.370Z,724.00
2023-04-07T04:51:34.528Z,780.00
2023-04-07T04:52:34.700Z,832.00
2023-04-07T04:53:34.889Z,888.00
2023-04-07T04:54:35.082Z,944.00
2023-04-07T04:55:35.262Z,1000.00
2023-04-07T04:56:35.409Z,1064.00
2023-04-07T04:57:35.564Z,1128.00
2023-04-07T04:58:35.773Z,1200.00
2023-04-07T04:59:35.925Z,1276.00
2023-04-07T05:00:36.182Z,1380.00
2023-04-07T05:01:36.293Z,1452.00
2023-04-07T05:02:36.627Z,1520.00
2023-04-07T05:03:36.813Z,1580.00
2023-04-07T05:04:36.940Z,1644.00
2023-04-07T05:05:36.991Z,1732.00
2023-04-07T05:06:37.167Z,1848.00
2023-04-07T05:07:37.449Z,1968.00
2023-04-07T05:08:37.549Z,2080.00
2023-04-07T05:09:37.726Z,2192.00
2023-04-07T05:10:37.898Z,2300.00
2023-04-07T05:11:38.053Z,2412.00
2023-04-07T05:12:38.247Z,2552.00
2023-04-07T05:13:38.482Z,2688.00
2023-04-07T05:14:38.587Z,2900.00
2023-04-07T05:15:38.743Z,3164.00
2023-04-07T05:16:38.955Z,3448.00
2023-04-07T05:17:39.127Z,3696.00
2023-04-07T05:18:39.300Z,3944.00
2023-04-07T05:19:39.445Z,4204.00
2023-04-07T05:20:39.630Z,4392.00
2023-04-07T05:21:39.758Z,4504.00
2023-04-07T05:22:39.930Z,4540.00
2023-04-07T05:23:40.104Z,4632.00
2023-04-07T05:24:40.283Z,4976.00
2023-04-07T05:25:40.469Z,5264.00
2023-04-07T05:26:40.696Z,5456.00
2023-04-07T05:27:40.812Z,5728.00
2023-04-07T05:28:40.980Z,6128.00
2023-04-07T05:29:41.145Z,6648.00
2023-04-07T05:30:41.326Z,7280.00
2023-04-07T05:31:41.542Z,8084.00
2023-04-07T05:32:41.725Z,8508.00
2023-04-07T05:33:41.882Z,8380.00
2023-04-07T05:34:42.017Z,8044.00
2023-04-07T05:35:42.200Z,7752.00
2023-04-07T05:36:42.392Z,7696.00
2023-04-07T05:37:42.594Z,7656.00
2023-04-07T05:38:42.823Z,7372.00
2023-04-07T05:39:42.927Z,6796.00
2023-04-07T05:40:43.108Z,6376.00
2023-04-07T05:41:43.274Z,6400.00
2023-04-07T05:42:43.447Z,6604.00
2023-04-07T05:43:43.619Z,6800.00
2023-04-07T05:44:43.805Z,7104.00
2023-04-07T05:45:44.035Z,7248.00
2023-04-07T05:46:44.159Z,6856.00
2023-04-07T05:47:44.384Z,6640.00
2023-04-07T05:48:44.491Z,7088.00
2023-04-07T05:49:44.678Z,7652.00
2023-04-07T05:50:44.847Z,7240.00
2023-04-07T05:51:46.723Z,7400.00
2023-04-07T05:52:45.205Z,7856.00
2023-04-07T05:53:45.389Z,8284.00
2023-04-07T05:54:45.566Z,8872.00
2023-04-07T05:55:45.743Z,8228.00
2023-04-07T05:56:45.927Z,7284.00
2023-04-07T05:57:46.102Z,7408.00
2023-04-07T05:58:46.296Z,8252.00
2023-04-07T05:59:46.484Z,8900.00
2023-04-07T06:00:46.645Z,9132.00
2023-04-07T06:01:46.930Z,9116.00
2023-04-07T06:02:47.195Z,8472.00
2023-04-07T06:03:47.429Z,7000.00
2023-04-07T06:04:47.364Z,6096.00
2023-04-07T06:05:47.537Z,5860.00
2023-04-07T06:06:47.712Z,5828.00
2023-04-07T06:07:47.893Z,5708.00
2023-04-07T06:08:48.053Z,5652.00
2023-04-07T06:09:48.239Z,5632.00
2023-04-07T06:10:48.424Z,5640.00
2023-04-07T06:11:48.587Z,5752.00
2023-04-07T06:12:48.763Z,5608.00
2023-04-07T06:13:49.063Z,5604.00
2023-04-07T06:14:49.120Z,5628.00
2023-04-07T06:15:49.326Z,5684.00
2023-04-07T06:16:49.476Z,5744.00
2023-04-07T06:17:49.658Z,5772.00
2023-04-07T06:18:49.825Z,5836.00
2023-04-07T06:19:50.004Z,5876.00
2023-04-07T06:20:50.154Z,5976.00
2023-04-07T06:21:50.349Z,6124.00
2023-04-07T06:22:50.525Z,6288.00
2023-04-07T06:23:51.090Z,6512.00
2023-04-07T06:24:50.826Z,6680.00
2023-04-07T06:25:51.007Z,6800.00
2023-04-07T06:26:51.153Z,7060.00
2023-04-07T06:27:51.363Z,7300.00
2023-04-07T06:28:51.533Z,7528.00
2023-04-07T06:29:51.734Z,7788.00
2023-04-07T06:30:51.877Z,8284.00
2023-04-07T06:31:52.033Z,8004.00
2023-04-07T06:32:52.325Z,8356.00
2023-04-07T06:33:52.407Z,8136.00
2023-04-07T06:34:52.599Z,8312.00
2023-04-07T06:35:52.764Z,8584.00
2023-04-07T06:36:52.973Z,8652.00
2023-04-07T06:37:53.129Z,8704.00
2023-04-07T06:38:53.309Z,8828.00
2023-04-07T06:39:53.457Z,9164.00
2023-04-07T06:40:53.647Z,8980.00
2023-04-07T06:41:53.805Z,8632.00
2023-04-07T06:42:53.990Z,8296.00
2023-04-07T06:43:54.194Z,8268.00
2023-04-07T06:44:54.334Z,8292.00
2023-04-07T06:45:54.555Z,8352.00
2023-04-07T06:46:54.696Z,8188.00
2023-04-07T06:47:55.017Z,8052.00
2023-04-07T06:48:55.047Z,7980.00
2023-04-07T06:49:55.215Z,7964.00
2023-04-07T06:50:55.386Z,8068.00
2023-04-07T06:51:55.566Z,8376.00
2023-04-07T06:52:55.756Z,8772.00
2023-04-07T06:53:55.951Z,8988.00
2023-04-07T06:54:56.115Z,9072.00
2023-04-07T06:55:56.291Z,9228.00
2023-04-07T06:56:56.450Z,9468.00
2023-04-07T06:57:56.630Z,9700.00
2023-04-07T06:58:56.790Z,9948.00
2023-04-07T06:59:56.966Z,10284.00
2023-04-07T07:00:57.184Z,10700.00
2023-04-07T07:01:57.376Z,11172.00
2023-04-07T07:02:57.661Z,11736.00
2023-04-07T07:03:57.743Z,12052.00
2023-04-07T07:04:57.805Z,12292.00
2023-04-07T07:05:57.969Z,12448.00
2023-04-07T07:06:58.153Z,12744.00
2023-04-07T07:07:58.322Z,13596.00
2023-04-07T07:08:58.480Z,14172.00
2023-04-07T07:09:58.642Z,16800.00
2023-04-07T07:10:58.838Z,19488.00
2023-04-07T07:11:59.023Z,17824.00
2023-04-07T07:12:59.189Z,16960.00
2023-04-07T07:13:59.372Z,17632.00
2023-04-07T07:14:59.529Z,16864.00
2023-04-07T07:15:59.727Z,16252.00
2023-04-07T07:16:59.899Z,15820.00
2023-04-07T07:18:00.100Z,15332.00
2023-04-07T07:19:00.208Z,14748.00
2023-04-07T07:20:00.384Z,15792.00
2023-04-07T07:21:00.541Z,16436.00
2023-04-07T07:22:00.740Z,17760.00
2023-04-07T07:23:00.899Z,18048.00
2023-04-07T07:24:01.091Z,15944.00
2023-04-07T07:25:01.254Z,13708.00
2023-04-07T07:26:01.418Z,12752.00
2023-04-07T07:27:01.595Z,12624.00
2023-04-07T07:28:01.808Z,13900.00
2023-04-07T07:29:01.984Z,14812.00
2023-04-07T07:30:02.180Z,14880.00
2023-04-07T07:31:02.309Z,13704.00
2023-04-07T07:32:02.477Z,12324.00
2023-04-07T07:33:02.693Z,11756.00
2023-04-07T07:34:02.822Z,11716.00
2023-04-07T07:35:02.989Z,12092.00
2023-04-07T07:36:03.152Z,11940.00
2023-04-07T07:37:03.314Z,12344.00
2023-04-07T07:38:03.515Z,12872.00
2023-04-07T07:39:03.623Z,13392.00
2023-04-07T07:40:03.828Z,13900.00
2023-04-07T07:41:03.984Z,12376.00
2023-04-07T07:42:04.148Z,10704.00
2023-04-07T07:43:04.329Z,9696.00
2023-04-07T07:44:04.495Z,9520.00
2023-04-07T07:45:04.667Z,9448.00
2023-04-07T07:46:04.870Z,9376.00
2023-04-07T07:47:05.041Z,9448.00
2023-04-07T07:48:05.217Z,10256.00
2023-04-07T07:49:05.372Z,10476.00
2023-04-07T07:50:05.591Z,10636.00
2023-04-07T07:51:05.699Z,11812.00
2023-04-07T07:52:05.865Z,12144.00
2023-04-07T07:53:06.029Z,12648.00
2023-04-07T07:54:06.193Z,14848.00
2023-04-07T07:55:06.443Z,18624.00
2023-04-07T07:56:06.542Z,17728.00
2023-04-07T07:57:06.689Z,15636.00
2023-04-07T07:58:06.891Z,15372.00
2023-04-07T07:59:07.062Z,15276.00
2023-04-07T08:00:07.229Z,15300.00
2023-04-07T08:01:07.414Z,16080.00
2023-04-07T08:02:07.590Z,15864.00
2023-04-07T08:03:07.836Z,19232.00
2023-04-07T08:04:08.076Z,21792.00
2023-04-07T08:05:08.166Z,19232.00
2023-04-07T08:06:08.276Z,17824.00
2023-04-07T08:07:08.511Z,16176.00
2023-04-07T08:08:08.693Z,15568.00
2023-04-07T08:09:08.851Z,15164.00
2023-04-07T08:10:08.965Z,15092.00
2023-04-07T08:11:09.131Z,14704.00
2023-04-07T08:12:09.351Z,14116.00
2023-04-07T08:13:09.545Z,13828.00
2023-04-07T08:14:10.007Z,13168.00
2023-04-07T08:15:09.816Z,12652.00
2023-04-07T08:16:10.073Z,12112.00
2023-04-07T08:17:10.202Z,11480.00
2023-04-07T08:18:10.436Z,10712.00
2023-04-07T08:19:10.513Z,10348.00
2023-04-07T08:20:10.715Z,10224.00
2023-04-07T08:21:10.880Z,10092.00
2023-04-07T08:22:11.089Z,9868.00
2023-04-07T08:23:11.233Z,9488.00
2023-04-07T08:24:11.407Z,9116.00
2023-04-07T08:25:11.683Z,9032.00
2023-04-07T08:26:11.773Z,9076.00
2023-04-07T08:27:11.914Z,8832.00
2023-04-07T08:28:12.111Z,8292.00
2023-04-07T08:29:12.246Z,8044.00
2023-04-07T08:30:12.467Z,8104.00
2023-04-07T08:31:12.672Z,8428.00
2023-04-07T08:32:12.789Z,8912.00
2023-04-07T08:33:12.970Z,9188.00
2023-04-07T08:34:13.192Z,8964.00
2023-04-07T08:35:13.293Z,8312.00
2023-04-07T08:36:13.524Z,7764.00
2023-04-07T08:37:13.693Z,7672.00
2023-04-07T08:38:13.858Z,8032.00
2023-04-07T08:39:14.009Z,8604.00
2023-04-07T08:40:14.182Z,9052.00
2023-04-07T08:41:14.402Z,9316.00
2023-04-07T08:42:14.574Z,9436.00
2023-04-07T08:43:14.737Z,9800.00
2023-04-07T08:44:14.924Z,10424.00
2023-04-07T08:45:15.078Z,10876.00
2023-04-07T08:46:15.304Z,11140.00
2023-04-07T08:47:15.441Z,11712.00
2023-04-07T08:48:15.608Z,12496.00
2023-04-07T08:49:15.766Z,13048.00
2023-04-07T08:50:15.949Z,13160.00
2023-04-07T08:51:16.115Z,12696.00
2023-04-07T08:52:16.297Z,11956.00
2023-04-07T08:53:16.472Z,11156.00
2023-04-07T08:54:16.647Z,10320.00
2023-04-07T08:55:16.801Z,9916.00
2023-04-07T08:56:16.992Z,9924.00
2023-04-07T08:57:17.172Z,9672.00
2023-04-07T08:58:17.336Z,9280.00
2023-04-07T08:59:17.493Z,9020.00
2023-04-07T09:00:17.638Z,8864.00
2023-04-07T09:01:17.844Z,8556.00
2023-04-07T09:02:19.574Z,8068.00
2023-04-07T09:03:18.269Z,7620.00
2023-04-07T09:04:18.401Z,7320.00
2023-04-07T09:05:18.488Z,7080.00
2023-04-07T09:06:18.682Z,6976.00
2023-04-07T09:07:18.826Z,6952.00
2023-04-07T09:08:19.020Z,6968.00
2023-04-07T09:09:19.182Z,7136.00
2023-04-07T09:10:19.354Z,7388.00
2023-04-07T09:11:19.550Z,7572.00
2023-04-07T09:12:19.696Z,7596.00
2023-04-07T09:13:19.872Z,7484.00
2023-04-07T09:14:20.051Z,7300.00
2023-04-07T09:15:20.262Z,7232.00
2023-04-07T09:16:20.485Z,7396.00
2023-04-07T09:17:20.588Z,7748.00
2023-04-07T09:18:20.809Z,8524.00
2023-04-07T09:19:20.952Z,9736.00
2023-04-07T09:20:21.145Z,10904.00
2023-04-07T09:21:21.324Z,11276.00
2023-04-07T09:22:21.491Z,10948.00
2023-04-07T09:23:21.678Z,10620.00
2023-04-07T09:24:21.840Z,10784.00
2023-04-07T09:25:22.021Z,11068.00
2023-04-07T09:26:22.228Z,10984.00
2023-04-07T09:27:22.360Z,10588.00
2023-04-07T09:28:22.541Z,10448.00
2023-04-07T09:29:22.691Z,10736.00
2023-04-07T09:30:22.951Z,10956.00
2023-04-07T09:31:23.115Z,10760.00
2023-04-07T09:32:23.209Z,10512.00
2023-04-07T09:33:23.335Z,10316.00
2023-04-07T09:34:23.500Z,10140.00
2023-04-07T09:35:23.695Z,9996.00
2023-04-07T09:36:23.820Z,10020.00
2023-04-07T09:37:23.993Z,10204.00
2023-04-07T09:38:24.188Z,10468.00
2023-04-07T09:39:24.336Z,10552.00
2023-04-07T09:40:24.507Z,10224.00
2023-04-07T09:41:24.683Z,9680.00
2023-04-07T09:42:24.831Z,9276.00
2023-04-07T09:43:25.019Z,9204.00
2023-04-07T09:44:25.203Z,9276.00
2023-04-07T09:45:33.962Z,9264.00
2023-04-07T09:46:26.561Z,9296.00
2023-04-07T09:47:25.758Z,9528.00
2023-04-07T09:48:25.928Z,9784.00
2023-04-07T09:49:26.082Z,9588.00
2023-04-07T09:50:26.252Z,9040.00
2023-04-07T09:51:26.428Z,8700.00
2023-04-07T09:52:26.616Z,8548.00
2023-04-07T09:53:26.802Z,8248.00
2023-04-07T09:54:26.953Z,8088.00
2023-04-07T09:55:27.145Z,8148.00
2023-04-07T09:56:27.302Z,8132.00
2023-04-07T09:57:27.493Z,7728.00
2023-04-07T09:58:27.651Z,7268.00
2023-04-07T09:59:27.799Z,7364.00
2023-04-07T10:00:28.016Z,7964.00
2023-04-07T10:01:28.286Z,8488.00
2023-04-07T10:02:28.531Z,8676.00
2023-04-07T10:03:28.593Z,8788.00
2023-04-07T10:04:28.734Z,8532.00
2023-04-07T10:05:28.894Z,7680.00
2023-04-07T10:06:29.046Z,6844.00
2023-04-07T10:07:29.198Z,6524.00
2023-04-07T10:08:29.378Z,6560.00
2023-04-07T10:09:29.561Z,6704.00
2023-04-07T10:10:29.734Z,7072.00
2023-04-07T10:11:29.923Z,7804.00
2023-04-07T10:12:30.072Z,8736.00
2023-04-07T10:13:30.280Z,9592.00
2023-04-07T10:14:30.438Z,10236.00
2023-04-07T10:15:30.591Z,10732.00
2023-04-07T10:16:30.825Z,11148.00
2023-04-07T10:17:30.948Z,11352.00
2023-04-07T10:18:31.138Z,11168.00
2023-04-07T10:19:31.326Z,10680.00
2023-04-07T10:20:31.452Z,10204.00
2023-04-07T10:21:32.868Z,9808.00
2023-04-07T10:22:31.797Z,9032.00
2023-04-07T10:23:32.017Z,8716.00
2023-04-07T10:24:32.148Z,8712.00
2023-04-07T10:25:32.408Z,8912.00
2023-04-07T10:26:32.505Z,9268.00
2023-04-07T10:27:32.688Z,9340.00
2023-04-07T10:28:32.919Z,9264.00
2023-04-07T10:29:33.050Z,9208.00
2023-04-07T10:30:33.245Z,9104.00
2023-04-07T10:31:33.439Z,9032.00
2023-04-07T10:32:33.564Z,9036.00
2023-04-07T10:33:33.753Z,9292.00
2023-04-07T10:34:33.890Z,9676.00
2023-04-07T10:35:34.131Z,10180.00
2023-04-07T10:36:34.259Z,10576.00
2023-04-07T10:37:34.430Z,10672.00
2023-04-07T10:38:34.654Z,10540.00
2023-04-07T10:39:34.740Z,10260.00
2023-04-07T10:40:34.943Z,9952.00
2023-04-07T10:41:35.109Z,9836.00
2023-04-07T10:42:35.237Z,9812.00
2023-04-07T10:43:35.426Z,9896.00
2023-04-07T10:44:35.579Z,10216.00
2023-04-07T10:45:35.754Z,10612.00
2023-04-07T10:46:35.966Z,10988.00
2023-04-07T10:47:36.118Z,11420.00
2023-04-07T10:48:36.310Z,11772.00
2023-04-07T10:49:36.440Z,11984.00
2023-04-07T10:50:36.616Z,12268.00
2023-04-07T10:51:36.799Z,12604.00
2023-04-07T10:52:36.962Z,12988.00
2023-04-07T10:53:37.182Z,13336.00
2023-04-07T10:54:37.329Z,13360.00
2023-04-07T10:55:37.518Z,13084.00
2023-04-07T10:56:37.670Z,12720.00
2023-04-07T10:57:37.825Z,12068.00
2023-04-07T10:58:38.036Z,11564.00
2023-04-07T10:59:38.169Z,11236.00
2023-04-07T11:00:38.353Z,11080.00
2023-04-07T11:01:38.660Z,11068.00
2023-04-07T11:02:38.893Z,11164.00
2023-04-07T11:03:39.113Z,11404.00
2023-04-07T11:04:39.123Z,11852.00
2023-04-07T11:05:39.200Z,12412.00
2023-04-07T11:06:39.355Z,13132.00
2023-04-07T11:07:39.549Z,13716.00
2023-04-07T11:08:39.752Z,13976.00
2023-04-07T11:09:39.875Z,14092.00
2023-04-07T11:10:40.068Z,14304.00
2023-04-07T11:11:40.210Z,14316.00
2023-04-07T11:12:40.394Z,14104.00
2023-04-07T11:13:40.595Z,13868.00
2023-04-07T11:14:40.750Z,13488.00
2023-04-07T11:15:41.152Z,13380.00
2023-04-07T11:16:41.082Z,13880.00
2023-04-07T11:17:41.301Z,14280.00
2023-04-07T11:18:41.450Z,14140.00
2023-04-07T11:19:41.602Z,13912.00
2023-04-07T11:20:42.903Z,14172.00
2023-04-07T11:21:41.956Z,15048.00
2023-04-07T11:22:42.114Z,15212.00
2023-04-07T11:23:42.300Z,14172.00
2023-04-07T11:24:42.465Z,13340.00
2023-04-07T11:25:42.625Z,13280.00
2023-04-07T11:26:42.797Z,13676.00
2023-04-07T11:27:42.950Z,13884.00
2023-04-07T11:28:43.110Z,13656.00
2023-04-07T11:29:43.290Z,13080.00
2023-04-07T11:30:43.463Z,12844.00
2023-04-07T11:31:43.705Z,12884.00
2023-04-07T11:32:43.813Z,13152.00
2023-04-07T11:33:43.983Z,13508.00
2023-04-07T11:34:44.143Z,13876.00
2023-04-07T11:35:44.314Z,14180.00
2023-04-07T11:36:44.496Z,14244.00
2023-04-07T11:37:44.626Z,14516.00
2023-04-07T11:38:46.689Z,14824.00
2023-04-07T11:39:44.984Z,14536.00
2023-04-07T11:40:45.162Z,14052.00
2023-04-07T11:41:45.316Z,13596.00
2023-04-07T11:42:45.478Z,13132.00
2023-04-07T11:43:45.773Z,12540.00
2023-04-07T11:44:45.814Z,12068.00
2023-04-07T11:45:45.973Z,11664.00
2023-04-07T11:46:46.162Z,11144.00
2023-04-07T11:47:46.385Z,10320.00
2023-04-07T11:48:46.491Z,9576.00
2023-04-07T11:49:46.657Z,9280.00
2023-04-07T11:50:46.852Z,9316.00
2023-04-07T11:51:47.040Z,9532.00
2023-04-07T11:52:47.203Z,9892.00
2023-04-07T11:53:47.783Z,10464.00
2023-04-07T11:54:47.608Z,11116.00
2023-04-07T11:55:47.775Z,11636.00
2023-04-07T11:56:47.945Z,12088.00
2023-04-07T11:57:48.135Z,12536.00
2023-04-07T11:58:48.296Z,12900.00
2023-04-07T11:59:48.468Z,13040.00
2023-04-07T12:00:48.619Z,13024.00
2023-04-07T12:01:48.817Z,12792.00
2023-04-07T12:02:49.080Z,12536.00
2023-04-07T12:03:49.529Z,12344.00
2023-04-07T12:04:49.393Z,12120.00
2023-04-07T12:05:49.497Z,11748.00
2023-04-07T12:06:49.659Z,11280.00
2023-04-07T12:07:49.861Z,10908.00
2023-04-07T12:08:50.025Z,10608.00
2023-04-07T12:09:50.196Z,10296.00
2023-04-07T12:10:50.350Z,10152.00
2023-04-07T12:11:50.544Z,10356.00
2023-04-07T12:12:50.732Z,10716.00
2023-04-07T12:13:51.044Z,10984.00
2023-04-07T12:14:51.068Z,11164.00
2023-04-07T12:15:51.232Z,11252.00
2023-04-07T12:16:51.441Z,11236.00
2023-04-07T12:17:52.580Z,11248.00
2023-04-07T12:18:51.758Z,11360.00
2023-04-07T12:19:51.923Z,11652.00
2023-04-07T12:20:52.111Z,12008.00
2023-04-07T12:21:52.337Z,12264.00
2023-04-07T12:22:52.471Z,12360.00
2023-04-07T12:23:52.672Z,12368.00
2023-04-07T12:24:52.811Z,12344.00
2023-04-07T12:25:53.040Z,12252.00